sensor_id;sensor_type;location;lat;lon;timestamp;temperature;humidity
64858;SHT30;51335;51.148;6.950;2023-04-24T00:00:03;10.31;86.63
64858;SHT30;51335;51.148;6.950;2023-04-24T00:00:33;10.34;86.37
64858;SHT30;51335;51.148;6.950;2023-04-24T00:01:03;10.31;86.22
64858;SHT30;51335;51.148;6.950;2023-04-24T00:01:34;10.35;86.25
64858;SHT30;51335;51.148;6.950;2023-04-24T00:02:04;10.35;86.08
64858;SHT30;51335;51.148;6.950;2023-04-24T00:02:35;10.37;85.92
64858;SHT30;51335;51.148;6.950;2023-04-24T00:03:05;10.38;85.87
64858;SHT30;51335;51.148;6.950;2023-04-24T00:03:36;10.41;85.54
64858;SHT30;51335;51.148;6.950;2023-04-24T00:04:06;10.44;85.36
64858;SHT30;51335;51.148;6.950;2023-04-24T00:04:37;10.44;85.06
64858;SHT30;51335;51.148;6.950;2023-04-24T00:05:07;10.45;85.08
64858;SHT30;51335;51.148;6.950;2023-04-24T00:05:38;10.50;84.93
64858;SHT30;51335;51.148;6.950;2023-04-24T00:06:08;10.49;84.84
64858;SHT30;51335;51.148;6.950;2023-04-24T00:06:39;10.49;84.95
64858;SHT30;51335;51.148;6.950;2023-04-24T00:07:09;10.53;84.96
64858;SHT30;51335;51.148;6.950;2023-04-24T00:07:43;10.56;84.89
64858;SHT30;51335;51.148;6.950;2023-04-24T00:08:13;10.56;84.48
64858;SHT30;51335;51.148;6.950;2023-04-24T00:08:43;10.52;84.46
64858;SHT30;51335;51.148;6.950;2023-04-24T00:09:14;10.52;84.26
64858;SHT30;51335;51.148;6.950;2023-04-24T00:09:44;10.55;84.08
64858;SHT30;51335;51.148;6.950;2023-04-24T00:10:14;10.50;84.00
64858;SHT30;51335;51.148;6.950;2023-04-24T00:10:45;10.52;84.06
64858;SHT30;51335;51.148;6.950;2023-04-24T00:11:16;10.48;84.18
64858;SHT30;51335;51.148;6.950;2023-04-24T00:11:46;10.49;84.46
64858;SHT30;51335;51.148;6.950;2023-04-24T00:12:16;10.48;84.63
64858;SHT30;51335;51.148;6.950;2023-04-24T00:12:47;10.50;84.82
64858;SHT30;51335;51.148;6.950;2023-04-24T00:13:17;10.50;84.82
64858;SHT30;51335;51.148;6.950;2023-04-24T00:13:48;10.53;84.90
64858;SHT30;51335;51.148;6.950;2023-04-24T00:14:18;10.48;84.82
64858;SHT30;51335;51.148;6.950;2023-04-24T00:14:48;10.48;85.08
64858;SHT30;51335;51.148;6.950;2023-04-24T00:15:18;10.48;85.22
64858;SHT30;51335;51.148;6.950;2023-04-24T00:15:49;10.48;85.16
64858;SHT30;51335;51.148;6.950;2023-04-24T00:16:19;10.42;85.31
64858;SHT30;51335;51.148;6.950;2023-04-24T00:16:49;10.46;85.42
64858;SHT30;51335;51.148;6.950;2023-04-24T00:17:20;10.44;85.41
64858;SHT30;51335;51.148;6.950;2023-04-24T00:17:50;10.45;85.33
64858;SHT30;51335;51.148;6.950;2023-04-24T00:18:20;10.48;85.01
64858;SHT30;51335;51.148;6.950;2023-04-24T00:18:51;10.48;84.72
64858;SHT30;51335;51.148;6.950;2023-04-24T00:19:21;10.52;84.54
64858;SHT30;51335;51.148;6.950;2023-04-24T00:19:51;10.55;84.21
64858;SHT30;51335;51.148;6.950;2023-04-24T00:20:21;10.58;84.06
64858;SHT30;51335;51.148;6.950;2023-04-24T00:20:52;10.62;84.09
64858;SHT30;51335;51.148;6.950;2023-04-24T00:21:22;10.66;84.14
64858;SHT30;51335;51.148;6.950;2023-04-24T00:21:52;10.69;84.07
64858;SHT30;51335;51.148;6.950;2023-04-24T00:22:22;10.73;83.96
64858;SHT30;51335;51.148;6.950;2023-04-24T00:22:53;10.79;83.85
64858;SHT30;51335;51.148;6.950;2023-04-24T00:23:23;10.76;83.64
64858;SHT30;51335;51.148;6.950;2023-04-24T00:23:53;10.79;83.62
64858;SHT30;51335;51.148;6.950;2023-04-24T00:24:23;10.79;83.60
64858;SHT30;51335;51.148;6.950;2023-04-24T00:24:54;10.76;83.65
64858;SHT30;51335;51.148;6.950;2023-04-24T00:25:24;10.77;83.27
64858;SHT30;51335;51.148;6.950;2023-04-24T00:25:55;10.77;82.98
64858;SHT30;51335;51.148;6.950;2023-04-24T00:26:25;10.81;83.21
64858;SHT30;51335;51.148;6.950;2023-04-24T00:26:55;10.84;83.29
64858;SHT30;51335;51.148;6.950;2023-04-24T00:27:25;10.89;83.22
64858;SHT30;51335;51.148;6.950;2023-04-24T00:27:56;10.93;83.23
64858;SHT30;51335;51.148;6.950;2023-04-24T00:28:26;10.90;83.11
64858;SHT30;51335;51.148;6.950;2023-04-24T00:28:56;10.93;83.07
64858;SHT30;51335;51.148;6.950;2023-04-24T00:29:26;10.95;83.03
64858;SHT30;51335;51.148;6.950;2023-04-24T00:29:57;10.92;83.08
64858;SHT30;51335;51.148;6.950;2023-04-24T00:30:27;10.90;83.26
64858;SHT30;51335;51.148;6.950;2023-04-24T00:30:57;10.89;83.37
64858;SHT30;51335;51.148;6.950;2023-04-24T00:31:27;10.95;83.35
64858;SHT30;51335;51.148;6.950;2023-04-24T00:31:58;10.96;83.15
64858;SHT30;51335;51.148;6.950;2023-04-24T00:32:28;10.93;83.31
64858;SHT30;51335;51.148;6.950;2023-04-24T00:32:58;10.93;83.26
64858;SHT30;51335;51.148;6.950;2023-04-24T00:33:29;10.92;83.11
64858;SHT30;51335;51.148;6.950;2023-04-24T00:33:59;10.93;83.11
64858;SHT30;51335;51.148;6.950;2023-04-24T00:34:29;10.97;83.13
64858;SHT30;51335;51.148;6.950;2023-04-24T00:35:00;10.99;82.75
64858;SHT30;51335;51.148;6.950;2023-04-24T00:35:30;10.97;82.56
64858;SHT30;51335;51.148;6.950;2023-04-24T00:36:00;11.01;82.51
64858;SHT30;51335;51.148;6.950;2023-04-24T00:36:30;11.06;82.39
64858;SHT30;51335;51.148;6.950;2023-04-24T00:37:01;11.10;82.09
64858;SHT30;51335;51.148;6.950;2023-04-24T00:37:31;11.14;81.76
64858;SHT30;51335;51.148;6.950;2023-04-24T00:38:01;11.11;81.78
64858;SHT30;51335;51.148;6.950;2023-04-24T00:38:32;11.16;81.77
64858;SHT30;51335;51.148;6.950;2023-04-24T00:39:02;11.16;81.77
64858;SHT30;51335;51.148;6.950;2023-04-24T00:39:33;11.17;81.71
64858;SHT30;51335;51.148;6.950;2023-04-24T00:40:03;11.17;81.60
64858;SHT30;51335;51.148;6.950;2023-04-24T00:40:34;11.16;81.54
64858;SHT30;51335;51.148;6.950;2023-04-24T00:41:04;11.16;81.60
64858;SHT30;51335;51.148;6.950;2023-04-24T00:41:35;11.14;81.53
64858;SHT30;51335;51.148;6.950;2023-04-24T00:42:06;11.17;81.48
64858;SHT30;51335;51.148;6.950;2023-04-24T00:42:37;11.21;81.49
64858;SHT30;51335;51.148;6.950;2023-04-24T00:43:07;11.21;81.48
64858;SHT30;51335;51.148;6.950;2023-04-24T00:43:37;11.23;81.55
64858;SHT30;51335;51.148;6.950;2023-04-24T00:44:08;11.25;81.46
64858;SHT30;51335;51.148;6.950;2023-04-24T00:44:38;11.23;81.18
64858;SHT30;51335;51.148;6.950;2023-04-24T00:45:09;11.25;81.40
64858;SHT30;51335;51.148;6.950;2023-04-24T00:45:39;11.24;81.29
64858;SHT30;51335;51.148;6.950;2023-04-24T00:46:10;11.27;81.19
64858;SHT30;51335;51.148;6.950;2023-04-24T00:46:40;11.31;80.99
64858;SHT30;51335;51.148;6.950;2023-04-24T00:47:11;11.30;80.95
64858;SHT30;51335;51.148;6.950;2023-04-24T00:47:43;11.30;80.91
64858;SHT30;51335;51.148;6.950;2023-04-24T00:48:15;11.28;80.85
64858;SHT30;51335;51.148;6.950;2023-04-24T00:48:46;11.28;80.71
64858;SHT30;51335;51.148;6.950;2023-04-24T00:49:16;11.27;80.91
64858;SHT30;51335;51.148;6.950;2023-04-24T00:49:47;11.27;80.68
64858;SHT30;51335;51.148;6.950;2023-04-24T00:50:17;11.27;80.64
64858;SHT30;51335;51.148;6.950;2023-04-24T00:50:48;11.24;80.53
64858;SHT30;51335;51.148;6.950;2023-04-24T00:51:18;11.24;80.53
64858;SHT30;51335;51.148;6.950;2023-04-24T00:51:49;11.28;80.48
64858;SHT30;51335;51.148;6.950;2023-04-24T00:52:19;11.27;80.47
64858;SHT30;51335;51.148;6.950;2023-04-24T00:52:50;11.23;80.72
64858;SHT30;51335;51.148;6.950;2023-04-24T00:53:20;11.23;80.96
64858;SHT30;51335;51.148;6.950;2023-04-24T00:53:50;11.25;81.21
64858;SHT30;51335;51.148;6.950;2023-04-24T00:54:21;11.21;81.32
64858;SHT30;51335;51.148;6.950;2023-04-24T00:54:51;11.18;81.50
64858;SHT30;51335;51.148;6.950;2023-04-24T00:55:21;11.17;81.69
64858;SHT30;51335;51.148;6.950;2023-04-24T00:55:52;11.23;81.82
64858;SHT30;51335;51.148;6.950;2023-04-24T00:56:22;11.27;81.16
64858;SHT30;51335;51.148;6.950;2023-04-24T00:56:52;11.24;81.14
64858;SHT30;51335;51.148;6.950;2023-04-24T00:57:23;11.23;81.28
64858;SHT30;51335;51.148;6.950;2023-04-24T00:57:54;11.23;81.48
64858;SHT30;51335;51.148;6.950;2023-04-24T00:58:24;11.21;81.61
64858;SHT30;51335;51.148;6.950;2023-04-24T00:58:55;11.18;81.24
64858;SHT30;51335;51.148;6.950;2023-04-24T00:59:26;11.17;81.07
64858;SHT30;51335;51.148;6.950;2023-04-24T00:59:56;11.16;81.50
64858;SHT30;51335;51.148;6.950;2023-04-24T01:00:27;11.11;81.51
64858;SHT30;51335;51.148;6.950;2023-04-24T01:00:58;11.10;81.46
64858;SHT30;51335;51.148;6.950;2023-04-24T01:01:28;11.08;81.35
64858;SHT30;51335;51.148;6.950;2023-04-24T01:01:59;11.11;81.53
64858;SHT30;51335;51.148;6.950;2023-04-24T01:02:29;11.14;81.71
64858;SHT30;51335;51.148;6.950;2023-04-24T01:03:01;11.17;81.61
64858;SHT30;51335;51.148;6.950;2023-04-24T01:03:34;11.17;81.53
64858;SHT30;51335;51.148;6.950;2023-04-24T01:04:05;11.10;81.70
64858;SHT30;51335;51.148;6.950;2023-04-24T01:04:35;11.08;81.84
64858;SHT30;51335;51.148;6.950;2023-04-24T01:05:07;11.08;82.02
64858;SHT30;51335;51.148;6.950;2023-04-24T01:05:37;11.10;82.11
64858;SHT30;51335;51.148;6.950;2023-04-24T01:06:09;11.14;81.98
64858;SHT30;51335;51.148;6.950;2023-04-24T01:06:40;11.17;81.68
64858;SHT30;51335;51.148;6.950;2023-04-24T01:07:11;11.16;81.60
64858;SHT30;51335;51.148;6.950;2023-04-24T01:07:43;11.18;81.50
64858;SHT30;51335;51.148;6.950;2023-04-24T01:08:14;11.16;81.42
64858;SHT30;51335;51.148;6.950;2023-04-24T01:08:46;11.13;81.62
64858;SHT30;51335;51.148;6.950;2023-04-24T01:09:18;11.11;81.72
64858;SHT30;51335;51.148;6.950;2023-04-24T01:09:49;11.13;81.96
64858;SHT30;51335;51.148;6.950;2023-04-24T01:10:19;11.08;82.19
64858;SHT30;51335;51.148;6.950;2023-04-24T01:10:53;11.08;82.15
64858;SHT30;51335;51.148;6.950;2023-04-24T01:11:24;11.13;82.13
64858;SHT30;51335;51.148;6.950;2023-04-24T01:11:55;11.11;81.91
64858;SHT30;51335;51.148;6.950;2023-04-24T01:12:25;11.16;82.03
64858;SHT30;51335;51.148;6.950;2023-04-24T01:12:55;11.16;81.97
64858;SHT30;51335;51.148;6.950;2023-04-24T01:13:25;11.14;81.80
64858;SHT30;51335;51.148;6.950;2023-04-24T01:13:56;11.18;81.57
64858;SHT30;51335;51.148;6.950;2023-04-24T01:14:27;11.20;81.44
64858;SHT30;51335;51.148;6.950;2023-04-24T01:14:57;11.17;81.37
64858;SHT30;51335;51.148;6.950;2023-04-24T01:15:27;11.17;81.44
64858;SHT30;51335;51.148;6.950;2023-04-24T01:15:58;11.18;81.44
64858;SHT30;51335;51.148;6.950;2023-04-24T01:16:28;11.17;81.13
64858;SHT30;51335;51.148;6.950;2023-04-24T01:16:59;11.16;80.74
64858;SHT30;51335;51.148;6.950;2023-04-24T01:17:29;11.13;80.90
64858;SHT30;51335;51.148;6.950;2023-04-24T01:18:00;11.10;81.02
64858;SHT30;51335;51.148;6.950;2023-04-24T01:18:30;11.06;81.32
64858;SHT30;51335;51.148;6.950;2023-04-24T01:19:00;11.04;81.34
64858;SHT30;51335;51.148;6.950;2023-04-24T01:19:31;11.06;81.44
64858;SHT30;51335;51.148;6.950;2023-04-24T01:20:01;11.07;81.66
64858;SHT30;51335;51.148;6.950;2023-04-24T01:20:32;11.06;81.80
64858;SHT30;51335;51.148;6.950;2023-04-24T01:21:04;11.00;81.90
64858;SHT30;51335;51.148;6.950;2023-04-24T01:21:36;11.01;81.93
64858;SHT30;51335;51.148;6.950;2023-04-24T01:22:13;10.97;82.02
64858;SHT30;51335;51.148;6.950;2023-04-24T01:22:44;10.97;82.10
64858;SHT30;51335;51.148;6.950;2023-04-24T01:23:14;10.97;82.14
64858;SHT30;51335;51.148;6.950;2023-04-24T01:23:45;10.95;81.98
64858;SHT30;51335;51.148;6.950;2023-04-24T01:24:15;10.93;81.73
64858;SHT30;51335;51.148;6.950;2023-04-24T01:24:46;10.86;81.25
64858;SHT30;51335;51.148;6.950;2023-04-24T01:25:16;10.90;81.11
64858;SHT30;51335;51.148;6.950;2023-04-24T01:25:47;10.84;81.06
64858;SHT30;51335;51.148;6.950;2023-04-24T01:26:18;10.89;81.25
64858;SHT30;51335;51.148;6.950;2023-04-24T01:26:48;10.86;81.24
64858;SHT30;51335;51.148;6.950;2023-04-24T01:27:19;10.86;81.43
64858;SHT30;51335;51.148;6.950;2023-04-24T01:27:49;10.86;81.66
64858;SHT30;51335;51.148;6.950;2023-04-24T01:28:20;10.84;81.77
64858;SHT30;51335;51.148;6.950;2023-04-24T01:28:51;10.90;81.47
64858;SHT30;51335;51.148;6.950;2023-04-24T01:29:21;10.90;81.26
64858;SHT30;51335;51.148;6.950;2023-04-24T01:29:51;10.87;81.07
64858;SHT30;51335;51.148;6.950;2023-04-24T01:30:22;10.83;81.19
64858;SHT30;51335;51.148;6.950;2023-04-24T01:30:52;10.79;81.24
64858;SHT30;51335;51.148;6.950;2023-04-24T01:31:22;10.73;81.18
64858;SHT30;51335;51.148;6.950;2023-04-24T01:31:53;10.69;81.48
64858;SHT30;51335;51.148;6.950;2023-04-24T01:32:24;10.73;81.40
64858;SHT30;51335;51.148;6.950;2023-04-24T01:32:55;10.76;81.49
64858;SHT30;51335;51.148;6.950;2023-04-24T01:33:25;10.75;81.24
64858;SHT30;51335;51.148;6.950;2023-04-24T01:33:56;10.73;81.21
64858;SHT30;51335;51.148;6.950;2023-04-24T01:34:27;10.70;81.47
64858;SHT30;51335;51.148;6.950;2023-04-24T01:34:58;10.66;81.52
64858;SHT30;51335;51.148;6.950;2023-04-24T01:35:28;10.70;81.70
64858;SHT30;51335;51.148;6.950;2023-04-24T01:35:58;10.67;81.81
64858;SHT30;51335;51.148;6.950;2023-04-24T01:36:30;10.60;81.89
64858;SHT30;51335;51.148;6.950;2023-04-24T01:37:00;10.62;81.99
64858;SHT30;51335;51.148;6.950;2023-04-24T01:37:31;10.62;81.98
64858;SHT30;51335;51.148;6.950;2023-04-24T01:38:01;10.62;81.97
64858;SHT30;51335;51.148;6.950;2023-04-24T01:38:32;10.58;81.92
64858;SHT30;51335;51.148;6.950;2023-04-24T01:39:02;10.62;81.88
64858;SHT30;51335;51.148;6.950;2023-04-24T01:39:32;10.65;81.58
64858;SHT30;51335;51.148;6.950;2023-04-24T01:40:06;10.65;81.46
64858;SHT30;51335;51.148;6.950;2023-04-24T01:40:37;10.53;81.38
64858;SHT30;51335;51.148;6.950;2023-04-24T01:41:08;10.45;81.75
64858;SHT30;51335;51.148;6.950;2023-04-24T01:41:38;10.44;81.83
64858;SHT30;51335;51.148;6.950;2023-04-24T01:42:08;10.49;81.83
64858;SHT30;51335;51.148;6.950;2023-04-24T01:42:40;10.48;81.86
64858;SHT30;51335;51.148;6.950;2023-04-24T01:43:11;10.46;81.87
64858;SHT30;51335;51.148;6.950;2023-04-24T01:43:42;10.46;81.88
64858;SHT30;51335;51.148;6.950;2023-04-24T01:44:12;10.42;82.25
64858;SHT30;51335;51.148;6.950;2023-04-24T01:44:43;10.37;82.35
64858;SHT30;51335;51.148;6.950;2023-04-24T01:45:13;10.37;82.58
64858;SHT30;51335;51.148;6.950;2023-04-24T01:45:44;10.32;82.71
64858;SHT30;51335;51.148;6.950;2023-04-24T01:46:14;10.31;82.80
64858;SHT30;51335;51.148;6.950;2023-04-24T01:46:44;10.27;82.91
64858;SHT30;51335;51.148;6.950;2023-04-24T01:47:15;10.21;83.01
64858;SHT30;51335;51.148;6.950;2023-04-24T01:47:45;10.17;83.23
64858;SHT30;51335;51.148;6.950;2023-04-24T01:48:16;10.15;83.39
64858;SHT30;51335;51.148;6.950;2023-04-24T01:48:47;10.15;83.41
64858;SHT30;51335;51.148;6.950;2023-04-24T01:49:17;10.17;83.60
64858;SHT30;51335;51.148;6.950;2023-04-24T01:49:48;10.15;83.71
64858;SHT30;51335;51.148;6.950;2023-04-24T01:50:19;10.12;83.79
64858;SHT30;51335;51.148;6.950;2023-04-24T01:50:50;10.02;83.96
64858;SHT30;51335;51.148;6.950;2023-04-24T01:51:20;10.05;83.79
64858;SHT30;51335;51.148;6.950;2023-04-24T01:51:50;10.05;83.79
64858;SHT30;51335;51.148;6.950;2023-04-24T01:52:20;10.00;83.84
64858;SHT30;51335;51.148;6.950;2023-04-24T01:52:51;9.95;84.11
64858;SHT30;51335;51.148;6.950;2023-04-24T01:53:21;9.95;84.22
64858;SHT30;51335;51.148;6.950;2023-04-24T01:53:51;9.95;84.26
64858;SHT30;51335;51.148;6.950;2023-04-24T01:54:22;9.95;84.35
64858;SHT30;51335;51.148;6.950;2023-04-24T01:54:52;9.93;84.26
64858;SHT30;51335;51.148;6.950;2023-04-24T01:55:22;9.91;84.29
64858;SHT30;51335;51.148;6.950;2023-04-24T01:55:53;9.93;84.49
64858;SHT30;51335;51.148;6.950;2023-04-24T01:56:23;9.94;84.39
64858;SHT30;51335;51.148;6.950;2023-04-24T01:56:54;9.94;84.51
64858;SHT30;51335;51.148;6.950;2023-04-24T01:57:25;9.91;84.51
64858;SHT30;51335;51.148;6.950;2023-04-24T01:57:56;9.91;84.64
64858;SHT30;51335;51.148;6.950;2023-04-24T01:58:26;9.90;84.61
64858;SHT30;51335;51.148;6.950;2023-04-24T01:58:57;9.87;84.61
64858;SHT30;51335;51.148;6.950;2023-04-24T01:59:27;9.87;84.44
64858;SHT30;51335;51.148;6.950;2023-04-24T01:59:58;9.81;84.21
64858;SHT30;51335;51.148;6.950;2023-04-24T02:00:29;9.81;84.51
64858;SHT30;51335;51.148;6.950;2023-04-24T02:00:59;9.83;84.41
64858;SHT30;51335;51.148;6.950;2023-04-24T02:01:34;9.70;84.53
64858;SHT30;51335;51.148;6.950;2023-04-24T02:02:05;9.71;84.77
64858;SHT30;51335;51.148;6.950;2023-04-24T02:02:35;9.64;84.80
64858;SHT30;51335;51.148;6.950;2023-04-24T02:03:05;9.60;84.80
64858;SHT30;51335;51.148;6.950;2023-04-24T02:03:36;9.60;84.91
64858;SHT30;51335;51.148;6.950;2023-04-24T02:04:07;9.59;84.90
64858;SHT30;51335;51.148;6.950;2023-04-24T02:04:37;9.56;84.77
64858;SHT30;51335;51.148;6.950;2023-04-24T02:05:08;9.56;84.67
64858;SHT30;51335;51.148;6.950;2023-04-24T02:05:39;9.54;84.59
64858;SHT30;51335;51.148;6.950;2023-04-24T02:06:09;9.46;84.57
64858;SHT30;51335;51.148;6.950;2023-04-24T02:06:39;9.46;84.60
64858;SHT30;51335;51.148;6.950;2023-04-24T02:07:09;9.46;84.63
64858;SHT30;51335;51.148;6.950;2023-04-24T02:07:40;9.47;84.70
64858;SHT30;51335;51.148;6.950;2023-04-24T02:08:10;9.43;84.71
64858;SHT30;51335;51.148;6.950;2023-04-24T02:08:40;9.43;84.79
64858;SHT30;51335;51.148;6.950;2023-04-24T02:09:11;9.43;84.86
64858;SHT30;51335;51.148;6.950;2023-04-24T02:09:41;9.43;84.94
64858;SHT30;51335;51.148;6.950;2023-04-24T02:10:11;9.49;84.83
64858;SHT30;51335;51.148;6.950;2023-04-24T02:10:42;9.46;84.61
64858;SHT30;51335;51.148;6.950;2023-04-24T02:11:12;9.40;84.66
64858;SHT30;51335;51.148;6.950;2023-04-24T02:11:42;9.36;84.73
64858;SHT30;51335;51.148;6.950;2023-04-24T02:12:12;9.36;84.76
64858;SHT30;51335;51.148;6.950;2023-04-24T02:12:43;9.33;84.80
64858;SHT30;51335;51.148;6.950;2023-04-24T02:13:13;9.33;85.00
64858;SHT30;51335;51.148;6.950;2023-04-24T02:13:43;9.35;85.12
64858;SHT30;51335;51.148;6.950;2023-04-24T02:14:14;9.33;85.07
64858;SHT30;51335;51.148;6.950;2023-04-24T02:14:44;9.32;85.00
64858;SHT30;51335;51.148;6.950;2023-04-24T02:15:14;9.25;84.95
64858;SHT30;51335;51.148;6.950;2023-04-24T02:15:44;9.28;85.16
64858;SHT30;51335;51.148;6.950;2023-04-24T02:16:15;9.26;85.18
64858;SHT30;51335;51.148;6.950;2023-04-24T02:16:45;9.25;85.14
64858;SHT30;51335;51.148;6.950;2023-04-24T02:17:15;9.22;85.14
64858;SHT30;51335;51.148;6.950;2023-04-24T02:17:45;9.19;85.24
64858;SHT30;51335;51.148;6.950;2023-04-24T02:18:16;9.15;85.34
64858;SHT30;51335;51.148;6.950;2023-04-24T02:18:46;9.18;85.41
64858;SHT30;51335;51.148;6.950;2023-04-24T02:19:16;9.15;85.36
64858;SHT30;51335;51.148;6.950;2023-04-24T02:19:46;9.18;85.42
64858;SHT30;51335;51.148;6.950;2023-04-24T02:20:17;9.25;85.20
64858;SHT30;51335;51.148;6.950;2023-04-24T02:20:47;9.26;84.95
64858;SHT30;51335;51.148;6.950;2023-04-24T02:21:17;9.28;84.89
64858;SHT30;51335;51.148;6.950;2023-04-24T02:21:47;9.29;84.89
64858;SHT30;51335;51.148;6.950;2023-04-24T02:22:18;9.25;84.79
64858;SHT30;51335;51.148;6.950;2023-04-24T02:22:48;9.23;85.02
64858;SHT30;51335;51.148;6.950;2023-04-24T02:23:18;9.23;85.04
64858;SHT30;51335;51.148;6.950;2023-04-24T02:23:48;9.18;85.35
64858;SHT30;51335;51.148;6.950;2023-04-24T02:24:19;9.18;85.45
64858;SHT30;51335;51.148;6.950;2023-04-24T02:24:49;9.16;85.45
64858;SHT30;51335;51.148;6.950;2023-04-24T02:25:19;9.14;85.65
64858;SHT30;51335;51.148;6.950;2023-04-24T02:25:50;9.12;85.74
64858;SHT30;51335;51.148;6.950;2023-04-24T02:26:20;9.14;85.80
64858;SHT30;51335;51.148;6.950;2023-04-24T02:26:50;9.10;85.90
64858;SHT30;51335;51.148;6.950;2023-04-24T02:27:20;9.12;85.96
64858;SHT30;51335;51.148;6.950;2023-04-24T02:27:51;9.14;85.85
64858;SHT30;51335;51.148;6.950;2023-04-24T02:28:21;9.16;85.94
64858;SHT30;51335;51.148;6.950;2023-04-24T02:28:51;9.16;85.76
64858;SHT30;51335;51.148;6.950;2023-04-24T02:29:21;9.18;85.75
64858;SHT30;51335;51.148;6.950;2023-04-24T02:29:52;9.21;85.65
64858;SHT30;51335;51.148;6.950;2023-04-24T02:30:22;9.15;85.58
64858;SHT30;51335;51.148;6.950;2023-04-24T02:30:52;9.12;85.76
64858;SHT30;51335;51.148;6.950;2023-04-24T02:31:22;9.11;85.87
64858;SHT30;51335;51.148;6.950;2023-04-24T02:31:53;9.10;86.02
64858;SHT30;51335;51.148;6.950;2023-04-24T02:32:23;9.08;86.14
64858;SHT30;51335;51.148;6.950;2023-04-24T02:32:53;9.07;85.99
64858;SHT30;51335;51.148;6.950;2023-04-24T02:33:24;9.07;85.95
64858;SHT30;51335;51.148;6.950;2023-04-24T02:33:54;9.07;86.02
64858;SHT30;51335;51.148;6.950;2023-04-24T02:34:24;9.04;86.16
64858;SHT30;51335;51.148;6.950;2023-04-24T02:34:54;9.05;86.25
64858;SHT30;51335;51.148;6.950;2023-04-24T02:35:25;9.02;86.24
64858;SHT30;51335;51.148;6.950;2023-04-24T02:35:55;9.04;86.25
64858;SHT30;51335;51.148;6.950;2023-04-24T02:36:25;9.11;86.27
64858;SHT30;51335;51.148;6.950;2023-04-24T02:36:55;9.12;86.00
64858;SHT30;51335;51.148;6.950;2023-04-24T02:37:26;9.15;85.88
64858;SHT30;51335;51.148;6.950;2023-04-24T02:37:56;9.11;85.90
64858;SHT30;51335;51.148;6.950;2023-04-24T02:38:26;9.15;86.06
64858;SHT30;51335;51.148;6.950;2023-04-24T02:38:57;9.10;86.09
64858;SHT30;51335;51.148;6.950;2023-04-24T02:39:27;9.10;86.17
64858;SHT30;51335;51.148;6.950;2023-04-24T02:39:57;9.10;86.18
64858;SHT30;51335;51.148;6.950;2023-04-24T02:40:27;9.15;86.38
64858;SHT30;51335;51.148;6.950;2023-04-24T02:40:58;9.22;86.41
64858;SHT30;51335;51.148;6.950;2023-04-24T02:41:28;9.22;86.35
64858;SHT30;51335;51.148;6.950;2023-04-24T02:41:58;9.29;86.22
64858;SHT30;51335;51.148;6.950;2023-04-24T02:42:28;9.35;86.06
64858;SHT30;51335;51.148;6.950;2023-04-24T02:42:59;9.36;85.92
64858;SHT30;51335;51.148;6.950;2023-04-24T02:43:29;9.36;85.74
64858;SHT30;51335;51.148;6.950;2023-04-24T02:43:59;9.40;85.70
64858;SHT30;51335;51.148;6.950;2023-04-24T02:44:29;9.39;85.49
64858;SHT30;51335;51.148;6.950;2023-04-24T02:45:00;9.38;85.50
64858;SHT30;51335;51.148;6.950;2023-04-24T02:45:30;9.39;85.48
64858;SHT30;51335;51.148;6.950;2023-04-24T02:46:00;9.43;85.57
64858;SHT30;51335;51.148;6.950;2023-04-24T02:46:31;9.40;85.70
64858;SHT30;51335;51.148;6.950;2023-04-24T02:47:01;9.43;85.78
64858;SHT30;51335;51.148;6.950;2023-04-24T02:47:31;9.47;85.51
64858;SHT30;51335;51.148;6.950;2023-04-24T02:48:01;9.52;85.43
64858;SHT30;51335;51.148;6.950;2023-04-24T02:48:32;9.54;85.41
64858;SHT30;51335;51.148;6.950;2023-04-24T02:49:02;9.54;85.42
64858;SHT30;51335;51.148;6.950;2023-04-24T02:49:32;9.56;85.45
64858;SHT30;51335;51.148;6.950;2023-04-24T02:50:03;9.56;85.30
64858;SHT30;51335;51.148;6.950;2023-04-24T02:50:33;9.61;85.18
64858;SHT30;51335;51.148;6.950;2023-04-24T02:51:03;9.60;85.09
64858;SHT30;51335;51.148;6.950;2023-04-24T02:51:35;9.60;85.07
64858;SHT30;51335;51.148;6.950;2023-04-24T02:52:05;9.64;85.03
64858;SHT30;51335;51.148;6.950;2023-04-24T02:52:35;9.63;84.80
64858;SHT30;51335;51.148;6.950;2023-04-24T02:53:06;9.66;84.78
64858;SHT30;51335;51.148;6.950;2023-04-24T02:53:36;9.66;84.76
64858;SHT30;51335;51.148;6.950;2023-04-24T02:54:08;9.63;84.65
64858;SHT30;51335;51.148;6.950;2023-04-24T02:54:38;9.67;84.86
64858;SHT30;51335;51.148;6.950;2023-04-24T02:55:08;9.71;84.97
64858;SHT30;51335;51.148;6.950;2023-04-24T02:55:38;9.69;84.96
64858;SHT30;51335;51.148;6.950;2023-04-24T02:56:09;9.76;85.01
64858;SHT30;51335;51.148;6.950;2023-04-24T02:56:39;9.76;84.85
64858;SHT30;51335;51.148;6.950;2023-04-24T02:57:09;9.77;84.73
64858;SHT30;51335;51.148;6.950;2023-04-24T02:57:39;9.79;84.73
64858;SHT30;51335;51.148;6.950;2023-04-24T02:58:10;9.83;84.84
64858;SHT30;51335;51.148;6.950;2023-04-24T02:58:40;9.83;84.88
64858;SHT30;51335;51.148;6.950;2023-04-24T02:59:10;9.83;84.93
64858;SHT30;51335;51.148;6.950;2023-04-24T02:59:40;9.83;84.88
64858;SHT30;51335;51.148;6.950;2023-04-24T03:00:11;9.81;85.02
64858;SHT30;51335;51.148;6.950;2023-04-24T03:00:41;9.84;84.85
64858;SHT30;51335;51.148;6.950;2023-04-24T03:01:12;9.84;84.74
64858;SHT30;51335;51.148;6.950;2023-04-24T03:01:42;9.90;84.66
64858;SHT30;51335;51.148;6.950;2023-04-24T03:02:12;9.87;84.52
64858;SHT30;51335;51.148;6.950;2023-04-24T03:02:43;9.91;84.52
64858;SHT30;51335;51.148;6.950;2023-04-24T03:03:13;9.95;84.40
64858;SHT30;51335;51.148;6.950;2023-04-24T03:03:43;9.94;84.43
64858;SHT30;51335;51.148;6.950;2023-04-24T03:04:14;9.94;84.42
64858;SHT30;51335;51.148;6.950;2023-04-24T03:04:44;9.90;84.52
64858;SHT30;51335;51.148;6.950;2023-04-24T03:05:14;9.91;84.73
64858;SHT30;51335;51.148;6.950;2023-04-24T03:05:45;9.91;84.86
64858;SHT30;51335;51.148;6.950;2023-04-24T03:06:15;9.88;84.71
64858;SHT30;51335;51.148;6.950;2023-04-24T03:06:45;9.88;84.84
64858;SHT30;51335;51.148;6.950;2023-04-24T03:07:16;9.84;84.87
64858;SHT30;51335;51.148;6.950;2023-04-24T03:07:46;9.87;84.97
64858;SHT30;51335;51.148;6.950;2023-04-24T03:08:16;9.83;84.95
64858;SHT30;51335;51.148;6.950;2023-04-24T03:08:46;9.84;84.87
64858;SHT30;51335;51.148;6.950;2023-04-24T03:09:17;9.87;84.97
64858;SHT30;51335;51.148;6.950;2023-04-24T03:09:47;9.86;85.14
64858;SHT30;51335;51.148;6.950;2023-04-24T03:10:18;9.87;85.09
64858;SHT30;51335;51.148;6.950;2023-04-24T03:10:48;9.87;85.06
64858;SHT30;51335;51.148;6.950;2023-04-24T03:11:18;9.87;84.90
64858;SHT30;51335;51.148;6.950;2023-04-24T03:11:49;9.88;84.75
64858;SHT30;51335;51.148;6.950;2023-04-24T03:12:19;9.90;84.74
64858;SHT30;51335;51.148;6.950;2023-04-24T03:12:49;9.94;84.63
64858;SHT30;51335;51.148;6.950;2023-04-24T03:13:19;10.01;84.55
64858;SHT30;51335;51.148;6.950;2023-04-24T03:13:50;10.02;84.11